sensor_id;sensor_type;location;lat;lon;timestamp;P1;durP1;ratioP1;P2;durP2;ratioP2
77724;SDS011;66892;53.236;6.550;2023-04-15T00:01:27;5.03;;;2.40;;
77724;SDS011;66892;53.236;6.550;2023-04-15T00:03:54;4.65;;;2.30;;
77724;SDS011;66892;53.236;6.550;2023-04-15T00:06:21;5.25;;;2.35;;
77724;SDS011;66892;53.236;6.550;2023-04-15T00:08:47;4.80;;;2.22;;
77724;SDS011;66892;53.236;6.550;2023-04-15T00:11:15;5.45;;;2.60;;
77724;SDS011;66892;53.236;6.550;2023-04-15T00:13:41;5.30;;;1.92;;
77724;SDS011;66892;53.236;6.550;2023-04-15T00:16:08;5.18;;;2.50;;
77724;SDS011;66892;53.236;6.550;2023-04-15T00:18:35;5.97;;;2.22;;
77724;SDS011;66892;53.236;6.550;2023-04-15T00:21:03;5.63;;;2.50;;
77724;SDS011;66892;53.236;6.550;2023-04-15T00:23:30;6.18;;;2.95;;
77724;SDS011;66892;53.236;6.550;2023-04-15T00:25:56;4.93;;;2.28;;
77724;SDS011;66892;53.236;6.550;2023-04-15T00:28:22;5.53;;;2.40;;
77724;SDS011;66892;53.236;6.550;2023-04-15T00:30:48;6.80;;;3.00;;
77724;SDS011;66892;53.236;6.550;2023-04-15T00:33:15;7.90;;;2.70;;
77724;SDS011;66892;53.236;6.550;2023-04-15T00:35:41;5.63;;;2.30;;
77724;SDS011;66892;53.236;6.550;2023-04-15T00:38:08;4.78;;;2.30;;
77724;SDS011;66892;53.236;6.550;2023-04-15T00:40:34;5.03;;;2.45;;
77724;SDS011;66892;53.236;6.550;2023-04-15T00:43:01;4.53;;;2.40;;
77724;SDS011;66892;53.236;6.550;2023-04-15T00:45:27;5.13;;;2.60;;
77724;SDS011;66892;53.236;6.550;2023-04-15T00:47:53;5.90;;;3.10;;
77724;SDS011;66892;53.236;6.550;2023-04-15T00:50:20;5.72;;;2.45;;
77724;SDS011;66892;53.236;6.550;2023-04-15T00:52:46;5.32;;;2.53;;
77724;SDS011;66892;53.236;6.550;2023-04-15T00:55:14;6.63;;;3.03;;
77724;SDS011;66892;53.236;6.550;2023-04-15T00:57:40;5.47;;;3.03;;
77724;SDS011;66892;53.236;6.550;2023-04-15T01:00:07;7.07;;;2.97;;
77724;SDS011;66892;53.236;6.550;2023-04-15T01:02:35;4.90;;;2.80;;
77724;SDS011;66892;53.236;6.550;2023-04-15T01:05:03;5.45;;;2.58;;
77724;SDS011;66892;53.236;6.550;2023-04-15T01:07:29;6.68;;;3.15;;
77724;SDS011;66892;53.236;6.550;2023-04-15T01:09:55;5.40;;;2.78;;
77724;SDS011;66892;53.236;6.550;2023-04-15T01:12:23;5.50;;;2.80;;
77724;SDS011;66892;53.236;6.550;2023-04-15T01:14:52;5.47;;;2.83;;
77724;SDS011;66892;53.236;6.550;2023-04-15T01:17:18;6.40;;;2.75;;
77724;SDS011;66892;53.236;6.550;2023-04-15T01:19:44;6.05;;;2.80;;
77724;SDS011;66892;53.236;6.550;2023-04-15T01:22:11;7.30;;;2.92;;
77724;SDS011;66892;53.236;6.550;2023-04-15T01:24:37;7.25;;;3.35;;
77724;SDS011;66892;53.236;6.550;2023-04-15T01:27:04;6.43;;;3.28;;
77724;SDS011;66892;53.236;6.550;2023-04-15T01:29:30;5.53;;;2.80;;
77724;SDS011;66892;53.236;6.550;2023-04-15T01:31:57;5.50;;;3.00;;
77724;SDS011;66892;53.236;6.550;2023-04-15T01:34:23;4.40;;;2.88;;
77724;SDS011;66892;53.236;6.550;2023-04-15T01:36:49;6.03;;;3.10;;
77724;SDS011;66892;53.236;6.550;2023-04-15T01:39:15;6.82;;;3.15;;
77724;SDS011;66892;53.236;6.550;2023-04-15T01:41:42;8.48;;;3.50;;
77724;SDS011;66892;53.236;6.550;2023-04-15T01:44:10;5.57;;;3.28;;
77724;SDS011;66892;53.236;6.550;2023-04-15T01:46:36;8.48;;;3.53;;
77724;SDS011;66892;53.236;6.550;2023-04-15T01:49:02;6.43;;;3.25;;
77724;SDS011;66892;53.236;6.550;2023-04-15T01:51:28;6.97;;;3.22;;
77724;SDS011;66892;53.236;6.550;2023-04-15T01:53:54;5.45;;;3.40;;
77724;SDS011;66892;53.236;6.550;2023-04-15T01:56:23;6.18;;;3.25;;
77724;SDS011;66892;53.236;6.550;2023-04-15T01:58:49;7.00;;;3.55;;
77724;SDS011;66892;53.236;6.550;2023-04-15T02:01:17;5.80;;;3.22;;
77724;SDS011;66892;53.236;6.550;2023-04-15T02:03:46;7.25;;;3.70;;
77724;SDS011;66892;53.236;6.550;2023-04-15T02:06:12;5.43;;;3.20;;
77724;SDS011;66892;53.236;6.550;2023-04-15T02:08:38;7.07;;;3.85;;
77724;SDS011;66892;53.236;6.550;2023-04-15T02:11:05;7.43;;;4.40;;
77724;SDS011;66892;53.236;6.550;2023-04-15T02:13:31;6.03;;;3.28;;
77724;SDS011;66892;53.236;6.550;2023-04-15T02:15:57;5.85;;;4.00;;
77724;SDS011;66892;53.236;6.550;2023-04-15T02:18:25;7.55;;;4.15;;
77724;SDS011;66892;53.236;6.550;2023-04-15T02:20:51;6.32;;;3.50;;
77724;SDS011;66892;53.236;6.550;2023-04-15T02:23:17;6.75;;;4.28;;
77724;SDS011;66892;53.236;6.550;2023-04-15T02:25:43;7.13;;;4.35;;
77724;SDS011;66892;53.236;6.550;2023-04-15T02:28:10;7.55;;;4.50;;
77724;SDS011;66892;53.236;6.550;2023-04-15T02:30:36;6.97;;;4.35;;
77724;SDS011;66892;53.236;6.550;2023-04-15T02:33:02;7.63;;;4.28;;
77724;SDS011;66892;53.236;6.550;2023-04-15T02:35:29;8.25;;;4.32;;
77724;SDS011;66892;53.236;6.550;2023-04-15T02:37:56;8.40;;;4.75;;
77724;SDS011;66892;53.236;6.550;2023-04-15T02:40:22;7.47;;;3.95;;
77724;SDS011;66892;53.236;6.550;2023-04-15T02:42:48;8.40;;;4.50;;
77724;SDS011;66892;53.236;6.550;2023-04-15T02:45:14;8.68;;;4.40;;
77724;SDS011;66892;53.236;6.550;2023-04-15T02:47:40;8.35;;;5.00;;
77724;SDS011;66892;53.236;6.550;2023-04-15T02:50:07;7.35;;;5.47;;
77724;SDS011;66892;53.236;6.550;2023-04-15T02:52:35;6.95;;;4.40;;
77724;SDS011;66892;53.236;6.550;2023-04-15T02:55:01;9.43;;;4.72;;
77724;SDS011;66892;53.236;6.550;2023-04-15T02:57:29;9.10;;;5.07;;
77724;SDS011;66892;53.236;6.550;2023-04-15T02:59:54;8.32;;;4.75;;
77724;SDS011;66892;53.236;6.550;2023-04-15T03:02:21;7.20;;;4.38;;
77724;SDS011;66892;53.236;6.550;2023-04-15T03:04:47;8.55;;;4.90;;
77724;SDS011;66892;53.236;6.550;2023-04-15T03:07:13;7.90;;;4.75;;
77724;SDS011;66892;53.236;6.550;2023-04-15T03:09:40;8.40;;;4.95;;
77724;SDS011;66892;53.236;6.550;2023-04-15T03:12:07;9.90;;;5.45;;
77724;SDS011;66892;53.236;6.550;2023-04-15T03:14:33;8.73;;;5.60;;
77724;SDS011;66892;53.236;6.550;2023-04-15T03:16:59;7.80;;;5.03;;
77724;SDS011;66892;53.236;6.550;2023-04-15T03:19:25;7.85;;;4.82;;
77724;SDS011;66892;53.236;6.550;2023-04-15T03:21:51;8.95;;;5.07;;
77724;SDS011;66892;53.236;6.550;2023-04-15T03:24:17;10.20;;;5.63;;
77724;SDS011;66892;53.236;6.550;2023-04-15T03:26:44;7.82;;;4.43;;
77724;SDS011;66892;53.236;6.550;2023-04-15T03:29:10;8.52;;;4.93;;
77724;SDS011;66892;53.236;6.550;2023-04-15T03:31:37;8.63;;;5.25;;
77724;SDS011;66892;53.236;6.550;2023-04-15T03:34:02;8.80;;;5.38;;
77724;SDS011;66892;53.236;6.550;2023-04-15T03:36:29;9.30;;;5.53;;
77724;SDS011;66892;53.236;6.550;2023-04-15T03:38:58;8.73;;;5.28;;
77724;SDS011;66892;53.236;6.550;2023-04-15T03:41:26;9.15;;;5.20;;
77724;SDS011;66892;53.236;6.550;2023-04-15T03:43:54;8.32;;;5.25;;
77724;SDS011;66892;53.236;6.550;2023-04-15T03:46:20;7.68;;;4.85;;
77724;SDS011;66892;53.236;6.550;2023-04-15T03:48:46;9.68;;;6.30;;
77724;SDS011;66892;53.236;6.550;2023-04-15T03:51:13;8.80;;;5.03;;
77724;SDS011;66892;53.236;6.550;2023-04-15T03:53:39;9.23;;;5.78;;
77724;SDS011;66892;53.236;6.550;2023-04-15T03:56:05;9.35;;;5.40;;
77724;SDS011;66892;53.236;6.550;2023-04-15T03:58:31;10.20;;;6.13;;
77724;SDS011;66892;53.236;6.550;2023-04-15T04:00:58;9.80;;;5.25;;
77724;SDS011;66892;53.236;6.550;2023-04-15T04:03:24;10.43;;;5.57;;
77724;SDS011;66892;53.236;6.550;2023-04-15T04:05:50;9.70;;;5.30;;
77724;SDS011;66892;53.236;6.550;2023-04-15T04:08:16;8.93;;;5.63;;
77724;SDS011;66892;53.236;6.550;2023-04-15T04:10:44;10.88;;;6.25;;
77724;SDS011;66892;53.236;6.550;2023-04-15T04:13:10;9.35;;;5.40;;
77724;SDS011;66892;53.236;6.550;2023-04-15T04:15:36;7.85;;;4.78;;
77724;SDS011;66892;53.236;6.550;2023-04-15T04:18:03;9.13;;;5.55;;
77724;SDS011;66892;53.236;6.550;2023-04-15T04:20:29;9.30;;;5.50;;
77724;SDS011;66892;53.236;6.550;2023-04-15T04:22:56;7.75;;;4.93;;
77724;SDS011;66892;53.236;6.550;2023-04-15T04:25:22;8.65;;;5.38;;
77724;SDS011;66892;53.236;6.550;2023-04-15T04:27:49;8.73;;;5.28;;
77724;SDS011;66892;53.236;6.550;2023-04-15T04:30:15;8.40;;;5.60;;
77724;SDS011;66892;53.236;6.550;2023-04-15T04:32:41;8.05;;;4.82;;
77724;SDS011;66892;53.236;6.550;2023-04-15T04:35:09;9.18;;;5.95;;
77724;SDS011;66892;53.236;6.550;2023-04-15T04:37:35;9.10;;;6.22;;
77724;SDS011;66892;53.236;6.550;2023-04-15T04:40:02;9.05;;;5.22;;
77724;SDS011;66892;53.236;6.550;2023-04-15T04:42:29;8.30;;;5.13;;
77724;SDS011;66892;53.236;6.550;2023-04-15T04:44:56;8.52;;;5.07;;
77724;SDS011;66892;53.236;6.550;2023-04-15T04:47:22;8.82;;;5.07;;
77724;SDS011;66892;53.236;6.550;2023-04-15T04:49:48;8.15;;;4.97;;
77724;SDS011;66892;53.236;6.550;2023-04-15T04:52:15;10.13;;;4.95;;
77724;SDS011;66892;53.236;6.550;2023-04-15T04:54:41;8.20;;;5.07;;
77724;SDS011;66892;53.236;6.550;2023-04-15T04:57:07;9.38;;;5.20;;
77724;SDS011;66892;53.236;6.550;2023-04-15T04:59:33;8.43;;;5.30;;
77724;SDS011;66892;53.236;6.550;2023-04-15T05:01:59;8.75;;;5.45;;
77724;SDS011;66892;53.236;6.550;2023-04-15T05:04:25;8.18;;;4.70;;
77724;SDS011;66892;53.236;6.550;2023-04-15T05:06:51;9.15;;;5.18;;
77724;SDS011;66892;53.236;6.550;2023-04-15T05:09:19;9.27;;;5.53;;
77724;SDS011;66892;53.236;6.550;2023-04-15T05:11:45;9.90;;;5.38;;
77724;SDS011;66892;53.236;6.550;2023-04-15T05:14:11;8.70;;;4.95;;
77724;SDS011;66892;53.236;6.550;2023-04-15T05:16:37;10.30;;;5.85;;
77724;SDS011;66892;53.236;6.550;2023-04-15T05:19:03;10.80;;;5.32;;
77724;SDS011;66892;53.236;6.550;2023-04-15T05:21:29;9.35;;;5.57;;
77724;SDS011;66892;53.236;6.550;2023-04-15T05:23:56;9.88;;;6.32;;
77724;SDS011;66892;53.236;6.550;2023-04-15T05:26:23;9.52;;;5.85;;
77724;SDS011;66892;53.236;6.550;2023-04-15T05:28:49;10.25;;;5.63;;
77724;SDS011;66892;53.236;6.550;2023-04-15T05:31:15;9.05;;;5.57;;
77724;SDS011;66892;53.236;6.550;2023-04-15T05:33:41;9.93;;;5.93;;
77724;SDS011;66892;53.236;6.550;2023-04-15T05:36:08;10.30;;;6.07;;
77724;SDS011;66892;53.236;6.550;2023-04-15T05:38:34;9.63;;;5.97;;
77724;SDS011;66892;53.236;6.550;2023-04-15T05:41:00;9.18;;;5.45;;
77724;SDS011;66892;53.236;6.550;2023-04-15T05:43:27;8.82;;;5.20;;
77724;SDS011;66892;53.236;6.550;2023-04-15T05:45:54;8.68;;;5.07;;
77724;SDS011;66892;53.236;6.550;2023-04-15T05:48:20;9.45;;;5.35;;
77724;SDS011;66892;53.236;6.550;2023-04-15T05:50:46;9.82;;;5.30;;
77724;SDS011;66892;53.236;6.550;2023-04-15T05:53:12;8.70;;;5.32;;
77724;SDS011;66892;53.236;6.550;2023-04-15T05:55:38;9.98;;;5.38;;
77724;SDS011;66892;53.236;6.550;2023-04-15T05:58:04;8.40;;;5.55;;
77724;SDS011;66892;53.236;6.550;2023-04-15T06:00:31;8.45;;;4.88;;
77724;SDS011;66892;53.236;6.550;2023-04-15T06:02:57;8.45;;;4.93;;
77724;SDS011;66892;53.236;6.550;2023-04-15T06:05:23;8.07;;;4.82;;
77724;SDS011;66892;53.236;6.550;2023-04-15T06:07:50;9.35;;;5.57;;
77724;SDS011;66892;53.236;6.550;2023-04-15T06:10:16;8.52;;;4.82;;
77724;SDS011;66892;53.236;6.550;2023-04-15T06:12:42;8.30;;;4.82;;
77724;SDS011;66892;53.236;6.550;2023-04-15T06:15:08;9.68;;;5.25;;
77724;SDS011;66892;53.236;6.550;2023-04-15T06:17:37;8.40;;;5.70;;
77724;SDS011;66892;53.236;6.550;2023-04-15T06:20:03;9.60;;;5.07;;
77724;SDS011;66892;53.236;6.550;2023-04-15T06:22:30;8.30;;;5.38;;
77724;SDS011;66892;53.236;6.550;2023-04-15T06:24:56;9.43;;;5.65;;
77724;SDS011;66892;53.236;6.550;2023-04-15T06:27:22;7.95;;;4.75;;
77724;SDS011;66892;53.236;6.550;2023-04-15T06:29:48;9.07;;;5.13;;
77724;SDS011;66892;53.236;6.550;2023-04-15T06:32:14;7.40;;;4.50;;
77724;SDS011;66892;53.236;6.550;2023-04-15T06:34:42;6.97;;;4.40;;
77724;SDS011;66892;53.236;6.550;2023-04-15T06:37:08;7.10;;;4.32;;
77724;SDS011;66892;53.236;6.550;2023-04-15T06:39:35;8.18;;;4.45;;
77724;SDS011;66892;53.236;6.550;2023-04-15T06:42:02;7.32;;;4.28;;
77724;SDS011;66892;53.236;6.550;2023-04-15T06:44:28;7.32;;;4.20;;
77724;SDS011;66892;53.236;6.550;2023-04-15T06:46:54;7.80;;;4.35;;
77724;SDS011;66892;53.236;6.550;2023-04-15T06:49:21;7.95;;;4.38;;
77724;SDS011;66892;53.236;6.550;2023-04-15T06:51:48;7.38;;;4.65;;
77724;SDS011;66892;53.236;6.550;2023-04-15T06:54:15;8.10;;;4.25;;
77724;SDS011;66892;53.236;6.550;2023-04-15T06:56:42;7.22;;;4.50;;
77724;SDS011;66892;53.236;6.550;2023-04-15T06:59:08;7.45;;;4.85;;
77724;SDS011;66892;53.236;6.550;2023-04-15T07:01:34;9.27;;;5.15;;
77724;SDS011;66892;53.236;6.550;2023-04-15T07:04:00;6.82;;;4.05;;
77724;SDS011;66892;53.236;6.550;2023-04-15T07:06:26;7.70;;;4.22;;
77724;SDS011;66892;53.236;6.550;2023-04-15T07:08:53;7.78;;;4.25;;
77724;SDS011;66892;53.236;6.550;2023-04-15T07:11:20;8.07;;;3.95;;
77724;SDS011;66892;53.236;6.550;2023-04-15T07:13:46;6.47;;;3.80;;
77724;SDS011;66892;53.236;6.550;2023-04-15T07:16:12;7.78;;;3.80;;
77724;SDS011;66892;53.236;6.550;2023-04-15T07:18:38;6.45;;;3.50;;
77724;SDS011;66892;53.236;6.550;2023-04-15T07:21:04;5.55;;;3.10;;
77724;SDS011;66892;53.236;6.550;2023-04-15T07:23:32;7.30;;;3.67;;
77724;SDS011;66892;53.236;6.550;2023-04-15T07:25:59;6.43;;;3.45;;
77724;SDS011;66892;53.236;6.550;2023-04-15T07:28:26;6.50;;;3.28;;
77724;SDS011;66892;53.236;6.550;2023-04-15T07:30:52;6.13;;;3.40;;
77724;SDS011;66892;53.236;6.550;2023-04-15T07:33:18;6.47;;;3.15;;
77724;SDS011;66892;53.236;6.550;2023-04-15T07:35:44;5.32;;;3.22;;
77724;SDS011;66892;53.236;6.550;2023-04-15T07:38:10;6.43;;;3.30;;
77724;SDS011;66892;53.236;6.550;2023-04-15T07:40:39;6.55;;;3.15;;
77724;SDS011;66892;53.236;6.550;2023-04-15T07:43:06;6.63;;;3.22;;
77724;SDS011;66892;53.236;6.550;2023-04-15T07:45:33;6.65;;;3.22;;
77724;SDS011;66892;53.236;6.550;2023-04-15T07:48:00;7.13;;;3.50;;
77724;SDS011;66892;53.236;6.550;2023-04-15T07:50:27;5.70;;;3.63;;
77724;SDS011;66892;53.236;6.550;2023-04-15T07:52:53;6.72;;;3.38;;
77724;SDS011;66892;53.236;6.550;2023-04-15T07:55:19;6.35;;;3.40;;
77724;SDS011;66892;53.236;6.550;2023-04-15T07:57:47;7.03;;;3.22;;
77724;SDS011;66892;53.236;6.550;2023-04-15T08:00:15;6.25;;;3.30;;
77724;SDS011;66892;53.236;6.550;2023-04-15T08:02:42;6.70;;;3.63;;
77724;SDS011;66892;53.236;6.550;2023-04-15T08:05:08;7.28;;;3.17;;
77724;SDS011;66892;53.236;6.550;2023-04-15T08:07:36;5.07;;;2.95;;
77724;SDS011;66892;53.236;6.550;2023-04-15T08:10:03;5.38;;;2.85;;
77724;SDS011;66892;53.236;6.550;2023-04-15T08:12:29;6.40;;;2.80;;
77724;SDS011;66892;53.236;6.550;2023-04-15T08:14:56;5.35;;;2.30;;
77724;SDS011;66892;53.236;6.550;2023-04-15T08:17:23;5.55;;;2.47;;
77724;SDS011;66892;53.236;6.550;2023-04-15T08:19:49;5.05;;;2.83;;
77724;SDS011;66892;53.236;6.550;2023-04-15T08:22:16;5.57;;;2.42;;
77724;SDS011;66892;53.236;6.550;2023-04-15T08:24:42;6.45;;;2.65;;
77724;SDS011;66892;53.236;6.550;2023-04-15T08:27:08;4.43;;;2.25;;
77724;SDS011;66892;53.236;6.550;2023-04-15T08:29:34;4.10;;;3.00;;
77724;SDS011;66892;53.236;6.550;2023-04-15T08:32:00;3.88;;;2.00;;
77724;SDS011;66892;53.236;6.550;2023-04-15T08:34:28;5.15;;;2.35;;
77724;SDS011;66892;53.236;6.550;2023-04-15T08:36:55;4.45;;;1.80;;
77724;SDS011;66892;53.236;6.550;2023-04-15T08:39:21;3.95;;;1.60;;
77724;SDS011;66892;53.236;6.550;2023-04-15T08:41:51;4.22;;;1.80;;
77724;SDS011;66892;53.236;6.550;2023-04-15T08:44:23;4.20;;;1.90;;
77724;SDS011;66892;53.236;6.550;2023-04-15T08:46:51;4.82;;;1.80;;
77724;SDS011;66892;53.236;6.550;2023-04-15T08:49:19;4.25;;;1.80;;
77724;SDS011;66892;53.236;6.550;2023-04-15T08:51:48;4.65;;;2.20;;
77724;SDS011;66892;53.236;6.550;2023-04-15T08:54:14;3.15;;;1.65;;
77724;SDS011;66892;53.236;6.550;2023-04-15T08:56:40;3.47;;;1.70;;
77724;SDS011;66892;53.236;6.550;2023-04-15T08:59:07;3.47;;;1.73;;
77724;SDS011;66892;53.236;6.550;2023-04-15T09:01:34;3.67;;;1.75;;
77724;SDS011;66892;53.236;6.550;2023-04-15T09:04:02;4.35;;;1.52;;
77724;SDS011;66892;53.236;6.550;2023-04-15T09:06:32;3.90;;;1.48;;
77724;SDS011;66892;53.236;6.550;2023-04-15T09:09:00;5.00;;;1.80;;
77724;SDS011;66892;53.236;6.550;2023-04-15T09:11:26;3.08;;;1.50;;
77724;SDS011;66892;53.236;6.550;2023-04-15T09:13:55;4.03;;;1.83;;
77724;SDS011;66892;53.236;6.550;2023-04-15T09:16:22;3.70;;;1.60;;
77724;SDS011;66892;53.236;6.550;2023-04-15T09:18:48;4.75;;;1.90;;
77724;SDS011;66892;53.236;6.550;2023-04-15T09:21:15;3.40;;;1.40;;
77724;SDS011;66892;53.236;6.550;2023-04-15T09:23:53;4.57;;;1.55;;
77724;SDS011;66892;53.236;6.550;2023-04-15T09:26:30;3.25;;;1.35;;
77724;SDS011;66892;53.236;6.550;2023-04-15T09:29:01;3.10;;;1.20;;
77724;SDS011;66892;53.236;6.550;2023-04-15T09:31:28;4.50;;;1.42;;
77724;SDS011;66892;53.236;6.550;2023-04-15T09:33:55;3.08;;;1.25;;
77724;SDS011;66892;53.236;6.550;2023-04-15T09:36:21;3.40;;;1.20;;
77724;SDS011;66892;53.236;6.550;2023-04-15T09:38:53;4.40;;;1.58;;
77724;SDS011;66892;53.236;6.550;2023-04-15T09:41:20;4.43;;;1.60;;
77724;SDS011;66892;53.236;6.550;2023-04-15T09:43:48;3.08;;;1.20;;
77724;SDS011;66892;53.236;6.550;2023-04-15T09:46:14;3.03;;;1.20;;
77724;SDS011;66892;53.236;6.550;2023-04-15T09:48:40;2.72;;;1.05;;
77724;SDS011;66892;53.236;6.550;2023-04-15T09:51:06;4.32;;;1.80;;
77724;SDS011;66892;53.236;6.550;2023-04-15T09:53:33;2.55;;;1.08;;
77724;SDS011;66892;53.236;6.550;2023-04-15T09:56:00;2.65;;;1.20;;
77724;SDS011;66892;53.236;6.550;2023-04-15T09:58:27;3.03;;;0.98;;
77724;SDS011;66892;53.236;6.550;2023-04-15T10:00:56;3.58;;;1.30;;
77724;SDS011;66892;53.236;6.550;2023-04-15T10:03:23;2.45;;;1.00;;
77724;SDS011;66892;53.236;6.550;2023-04-15T10:05:51;1.75;;;0.90;;
77724;SDS011;66892;53.236;6.550;2023-04-15T10:08:19;3.55;;;1.10;;
77724;SDS011;66892;53.236;6.550;2023-04-15T10:10:47;3.63;;;1.05;;
77724;SDS011;66892;53.236;6.550;2023-04-15T10:13:13;2.75;;;1.25;;
77724;SDS011;66892;53.236;6.550;2023-04-15T10:15:43;3.08;;;1.23;;
77724;SDS011;66892;53.236;6.550;2023-04-15T10:18:14;3.08;;;1.10;;
77724;SDS011;66892;53.236;6.550;2023-04-15T10:20:41;2.83;;;1.17;;
77724;SDS011;66892;53.236;6.550;2023-04-15T10:23:09;5.07;;;1.50;;
77724;SDS011;66892;53.236;6.550;2023-04-15T10:25:36;3.40;;;1.42;;
77724;SDS011;66892;53.236;6.550;2023-04-15T10:28:03;4.45;;;1.35;;
77724;SDS011;66892;53.236;6.550;2023-04-15T10:30:31;2.20;;;1.20;;
77724;SDS011;66892;53.236;6.550;2023-04-15T10:32:58;3.80;;;1.60;;
77724;SDS011;66892;53.236;6.550;2023-04-15T10:35:26;4.07;;;1.50;;
77724;SDS011;66892;53.236;6.550;2023-04-15T10:37:54;3.35;;;1.30;;
77724;SDS011;66892;53.236;6.550;2023-04-15T10:40:26;4.93;;;1.40;;
77724;SDS011;66892;53.236;6.550;2023-04-15T10:42:56;4.15;;;1.50;;
77724;SDS011;66892;53.236;6.550;2023-04-15T10:45:24;4.43;;;1.65;;
77724;SDS011;66892;53.236;6.550;2023-04-15T10:47:53;4.18;;;1.52;;
77724;SDS011;66892;53.236;6.550;2023-04-15T10:50:20;4.05;;;1.63;;
77724;SDS011;66892;53.236;6.550;2023-04-15T10:52:50;4.85;;;1.38;;
77724;SDS011;66892;53.236;6.550;2023-04-15T10:55:18;2.97;;;1.35;;
77724;SDS011;66892;53.236;6.550;2023-04-15T10:57:45;3.42;;;1.40;;
77724;SDS011;66892;53.236;6.550;2023-04-15T11:00:12;3.53;;;1.20;;
77724;SDS011;66892;53.236;6.550;2023-04-15T11:02:40;4.68;;;1.40;;
77724;SDS011;66892;53.236;6.550;2023-04-15T11:05:07;3.60;;;1.50;;
77724;SDS011;66892;53.236;6.550;2023-04-15T11:07:34;3.92;;;1.60;;
77724;SDS011;66892;53.236;6.550;2023-04-15T11:10:03;7.70;;;1.70;;
77724;SDS011;66892;53.236;6.550;2023-04-15T11:12:50;3.15;;;1.15;;
77724;SDS011;66892;53.236;6.550;2023-04-15T11:15:24;2.55;;;1.25;;
77724;SDS011;66892;53.236;6.550;2023-04-15T11:17:55;3.55;;;0.98;;
77724;SDS011;66892;53.236;6.550;2023-04-15T11:20:22;3.53;;;1.30;;
77724;SDS011;66892;53.236;6.550;2023-04-15T11:22:49;3.15;;;1.15;;
77724;SDS011;66892;53.236;6.550;2023-04-15T11:25:24;3.65;;;1.30;;
77724;SDS011;66892;53.236;6.550;2023-04-15T11:27:51;4.20;;;1.23;;
77724;SDS011;66892;53.236;6.550;2023-04-15T11:30:19;4.90;;;1.30;;
77724;SDS011;66892;53.236;6.550;2023-04-15T11:32:46;4.00;;;1.50;;
77724;SDS011;66892;53.236;6.550;2023-04-15T11:35:13;4.18;;;1.33;;
77724;SDS011;66892;53.236;6.550;2023-04-15T11:37:39;3.50;;;1.52;;
77724;SDS011;66892;53.236;6.550;2023-04-15T11:40:05;2.35;;;1.10;;
77724;SDS011;66892;53.236;6.550;2023-04-15T11:42:34;4.60;;;1.42;;
77724;SDS011;66892;53.236;6.550;2023-04-15T11:45:05;4.97;;;1.33;;
77724;SDS011;66892;53.236;6.550;2023-04-15T11:47:32;3.42;;;1.42;;
77724;SDS011;66892;53.236;6.550;2023-04-15T11:50:12;2.75;;;1.02;;
77724;SDS011;66892;53.236;6.550;2023-04-15T11:52:39;5.15;;;1.60;;
77724;SDS011;66892;53.236;6.550;2023-04-15T11:55:06;5.00;;;1.30;;
77724;SDS011;66892;53.236;6.550;2023-04-15T11:57:34;3.00;;;1.38;;
77724;SDS011;66892;53.236;6.550;2023-04-15T12:00:00;4.55;;;1.55;;
77724;SDS011;66892;53.236;6.550;2023-04-15T12:02:30;5.60;;;1.40;;
77724;SDS011;66892;53.236;6.550;2023-04-15T12:05:01;3.83;;;1.50;;
77724;SDS011;66892;53.236;6.550;2023-04-15T12:07:28;3.42;;;1.50;;
77724;SDS011;66892;53.236;6.550;2023-04-15T12:09:54;4.10;;;1.20;;
77724;SDS011;66892;53.236;6.550;2023-04-15T12:12:21;4.70;;;1.20;;
77724;SDS011;66892;53.236;6.550;2023-04-15T12:14:53;3.15;;;1.23;;
77724;SDS011;66892;53.236;6.550;2023-04-15T12:17:21;3.67;;;1.80;;
77724;SDS011;66892;53.236;6.550;2023-04-15T12:19:48;4.72;;;1.48;;
77724;SDS011;66892;53.236;6.550;2023-04-15T12:22:15;4.10;;;1.45;;
77724;SDS011;66892;53.236;6.550;2023-04-15T12:24:42;3.33;;;1.20;;
77724;SDS011;66892;53.236;6.550;2023-04-15T12:27:13;3.00;;;1.10;;
77724;SDS011;66892;53.236;6.550;2023-04-15T12:29:40;5.03;;;1.17;;
77724;SDS011;66892;53.236;6.550;2023-04-15T12:32:09;2.85;;;1.48;;
77724;SDS011;66892;53.236;6.550;2023-04-15T12:34:37;4.05;;;1.15;;
77724;SDS011;66892;53.236;6.550;2023-04-15T12:37:04;3.67;;;1.20;;
77724;SDS011;66892;53.236;6.550;2023-04-15T12:39:33;2.67;;;1.20;;
77724;SDS011;66892;53.236;6.550;2023-04-15T12:42:01;3.33;;;1.30;;
77724;SDS011;66892;53.236;6.550;2023-04-15T12:44:28;5.05;;;1.30;;
77724;SDS011;66892;53.236;6.550;2023-04-15T12:46:54;3.13;;;1.13;;
77724;SDS011;66892;53.236;6.550;2023-04-15T12:49:22;3.58;;;1.20;;
77724;SDS011;66892;53.236;6.550;2023-04-15T12:51:49;3.50;;;1.30;;
77724;SDS011;66892;53.236;6.550;2023-04-15T12:54:16;3.72;;;1.00;;
77724;SDS011;66892;53.236;6.550;2023-04-15T12:56:43;4.35;;;1.00;;
77724;SDS011;66892;53.236;6.550;2023-04-15T12:59:09;4.25;;;1.30;;
77724;SDS011;66892;53.236;6.550;2023-04-15T13:01:35;3.08;;;1.13;;
77724;SDS011;66892;53.236;6.550;2023-04-15T13:04:01;3.92;;;1.20;;
77724;SDS011;66892;53.236;6.550;2023-04-15T13:06:29;4.45;;;1.35;;
77724;SDS011;66892;53.236;6.550;2023-04-15T13:08:57;4.57;;;2.03;;
77724;SDS011;66892;53.236;6.550;2023-04-15T13:11:23;4.03;;;1.40;;
77724;SDS011;66892;53.236;6.550;2023-04-15T13:13:50;3.47;;;1.38;;
77724;SDS011;66892;53.236;6.550;2023-04-15T13:16:17;2.97;;;1.27;;
77724;SDS011;66892;53.236;6.550;2023-04-15T13:18:43;5.25;;;1.75;;
77724;SDS011;66892;53.236;6.550;2023-04-15T13:21:12;4.15;;;1.38;;
77724;SDS011;66892;53.236;6.550;2023-04-15T13:23:40;5.13;;;1.38;;
77724;SDS011;66892;53.236;6.550;2023-04-15T13:26:06;2.42;;;0.90;;
77724;SDS011;66892;53.236;6.550;2023-04-15T13:28:33;3.50;;;1.30;;
77724;SDS011;66892;53.236;6.550;2023-04-15T13:30:59;3.70;;;1.38;;
77724;SDS011;66892;53.236;6.550;2023-04-15T13:33:25;4.07;;;1.42;;
77724;SDS011;66892;53.236;6.550;2023-04-15T13:35:51;2.83;;;1.30;;
77724;SDS011;66892;53.236;6.550;2023-04-15T13:38:18;6.15;;;1.67;;
77724;SDS011;66892;53.236;6.550;2023-04-15T13:40:45;5.30;;;1.40;;
77724;SDS011;66892;53.236;6.550;2023-04-15T13:43:11;3.08;;;1.10;;
77724;SDS011;66892;53.236;6.550;2023-04-15T13:45:37;6.68;;;1.67;;
77724;SDS011;66892;53.236;6.550;2023-04-15T13:48:03;4.38;;;1.58;;
77724;SDS011;66892;53.236;6.550;2023-04-15T13:50:30;3.97;;;1.33;;
77724;SDS011;66892;53.236;6.550;2023-04-15T13:52:56;3.85;;;1.42;;
77724;SDS011;66892;53.236;6.550;2023-04-15T13:55:22;3.20;;;1.10;;
77724;SDS011;66892;53.236;6.550;2023-04-15T13:57:49;4.10;;;1.60;;
77724;SDS011;66892;53.236;6.550;2023-04-15T14:00:15;6.53;;;1.67;;
77724;SDS011;66892;53.236;6.550;2023-04-15T14:02:42;5.20;;;1.58;;
77724;SDS011;66892;53.236;6.550;2023-04-15T14:05:09;3.38;;;1.40;;
77724;SDS011;66892;53.236;6.550;2023-04-15T14:07:35;5.60;;;1.63;;
77724;SDS011;66892;53.236;6.550;2023-04-15T14:10:01;4.57;;;1.40;;
77724;SDS011;66892;53.236;6.550;2023-04-15T14:12:27;4.28;;;1.90;;
77724;SDS011;66892;53.236;6.550;2023-04-15T14:14:55;3.80;;;1.45;;
77724;SDS011;66892;53.236;6.550;2023-04-15T14:17:21;6.78;;;1.48;;
77724;SDS011;66892;53.236;6.550;2023-04-15T14:19:47;6.40;;;1.38;;
77724;SDS011;66892;53.236;6.550;2023-04-15T14:22:13;5.82;;;1.70;;
77724;SDS011;66892;53.236;6.550;2023-04-15T14:24:39;5.78;;;1.73;;
77724;SDS011;66892;53.236;6.550;2023-04-15T14:27:05;7.80;;;1.55;;
77724;SDS011;66892;53.236;6.550;2023-04-15T14:29:31;4.13;;;1.40;;
77724;SDS011;66892;53.236;6.550;2023-04-15T14:31:58;5.18;;;1.50;;
77724;SDS011;66892;53.236;6.550;2023-04-15T14:34:25;5.72;;;2.00;;
77724;SDS011;66892;53.236;6.550;2023-04-15T14:36:51;6.60;;;2.22;;
77724;SDS011;66892;53.236;6.550;2023-04-15T14:39:18;5.90;;;1.33;;
77724;SDS011;66892;53.236;6.550;2023-04-15T14:41:44;5.35;;;1.73;;
77724;SDS011;66892;53.236;6.550;2023-04-15T14:44:10;5.03;;;1.83;;
77724;SDS011;66892;53.236;6.550;2023-04-15T14:46:36;4.63;;;1.38;;